Time;durP1;ratioP1;P1;durP2;ratioP2;P2;SDS_P1;SDS_P2;PMS_P1;PMS_P2;Temp;Humidity;BMP_temperature;BMP_pressure;BME280_temperature;BME280_humidity;BME280_pressure;Samples;Min_cycle;Max_cycle;Signal;HPM_P1;HPM_P2
2023/01/16 00:01:41;;;;;;;;;;;5.30;99.90;;;;;;5005530;28;19971;-75
2023/01/16 00:04:06;;;;;;;;;;;5.30;99.90;;;;;;5005021;28;19963;-76
2023/01/16 00:06:32;;;;;;;;;;;5.30;99.90;;;;;;5010832;28;20001;-80
2023/01/16 00:08:57;;;;;;;;;;;5.30;99.90;;;;;;5012092;28;20168;-75
2023/01/16 00:11:23;;;;;;;;;;;5.20;99.90;;;;;;5010286;28;19917;-75
2023/01/16 00:13:48;;;;;;;;;;;5.10;99.90;;;;;;5008858;28;19970;-78
2023/01/16 00:16:14;;;;;;;;;;;5.10;99.90;;;;;;5019842;28;19913;-76
2023/01/16 00:18:41;;;;;;;;;;;5.10;99.90;;;;;;5007795;28;20401;-75
2023/01/16 00:21:06;;;;;;;;;;;5.10;99.90;;;;;;5012410;28;19913;-77
2023/01/16 00:23:32;;;;;;;;;;;5.10;99.90;;;;;;5006504;28;19916;-77
2023/01/16 00:25:57;;;;;;;;;;;5.20;99.90;;;;;;5011228;28;20363;-76
2023/01/16 00:28:23;;;;;;;;;;;5.10;99.90;;;;;;5006323;28;19910;-75
2023/01/16 00:30:48;;;;;;;;;;;5.10;99.90;;;;;;5007965;28;19917;-77
2023/01/16 00:33:14;;;;;;;;;;;5.10;99.90;;;;;;5007651;28;20021;-77
2023/01/16 00:35:40;;;;;;;;;;;5.00;99.90;;;;;;5005124;28;20185;-74
2023/01/16 00:38:05;;;;;;;;;;;5.00;99.90;;;;;;5005027;28;19968;-76
2023/01/16 00:40:31;;;;;;;;;;;5.10;99.90;;;;;;5016712;28;19960;-78
2023/01/16 00:42:56;;;;;;;;;;;5.10;99.90;;;;;;5004488;28;20008;-76
2023/01/16 00:45:22;;;;;;;;;;;5.00;99.90;;;;;;5006831;28;19914;-78
2023/01/16 00:47:47;;;;;;;;;;;5.00;99.90;;;;;;4999903;28;20359;-76
2023/01/16 00:50:13;;;;;;;;;;;5.00;99.90;;;;;;5005058;28;19995;-76
2023/01/16 00:52:38;;;;;;;;;;;5.00;99.90;;;;;;5006336;28;20425;-78
2023/01/16 00:55:04;;;;;;;;;;;5.10;99.90;;;;;;5007397;28;20492;-78
2023/01/16 00:57:30;;;;;;;;;;;5.10;99.90;;;;;;5003905;28;19913;-75
2023/01/16 00:59:55;;;;;;;;;;;5.10;99.90;;;;;;5004950;28;19914;-78
2023/01/16 01:02:21;;;;;;;;;;;5.10;99.90;;;;;;5001640;28;19948;-75
2023/01/16 01:04:46;;;;;;;;;;;5.10;99.90;;;;;;5007876;28;19949;-76
2023/01/16 01:07:12;;;;;;;;;;;5.00;99.90;;;;;;5009540;28;20074;-78
2023/01/16 01:09:37;;;;;;;;;;;5.00;99.90;;;;;;5015669;28;20385;-75
2023/01/16 01:12:03;;;;;;;;;;;5.10;99.90;;;;;;5012629;28;20331;-76
2023/01/16 01:14:28;;;;;;;;;;;5.10;99.90;;;;;;5012972;28;20350;-80
2023/01/16 01:16:54;;;;;;;;;;;5.00;99.90;;;;;;5014013;28;19940;-75
2023/01/16 01:19:19;;;;;;;;;;;5.00;99.90;;;;;;5006169;28;20029;-75
2023/01/16 01:21:45;;;;;;;;;;;5.00;99.90;;;;;;5011896;28;20730;-76
2023/01/16 01:24:11;;;;;;;;;;;5.00;99.90;;;;;;5020155;28;19959;-76
2023/01/16 01:26:37;;;;;;;;;;;5.00;99.90;;;;;;5021231;28;20539;-76
2023/01/16 01:29:03;;;;;;;;;;;5.00;99.90;;;;;;5033640;28;19920;-77
2023/01/16 01:31:28;;;;;;;;;;;5.00;99.90;;;;;;5033436;28;20100;-78
2023/01/16 01:33:54;;;;;;;;;;;4.90;99.90;;;;;;5031270;28;19927;-77
2023/01/16 01:36:19;;;;;;;;;;;5.00;99.90;;;;;;5022774;28;19924;-76
2023/01/16 01:38:46;;;;;;;;;;;5.00;99.90;;;;;;5005402;28;19928;-74
2023/01/16 01:41:13;;;;;;;;;;;4.90;99.90;;;;;;5016668;28;19913;-78
2023/01/16 01:43:53;;;;;;;;;;;5.00;99.90;;;;;;5006871;28;19997;-77
2023/01/16 01:46:21;;;;;;;;;;;5.00;99.90;;;;;;5000165;28;19956;-76
2023/01/16 01:48:47;;;;;;;;;;;5.00;99.90;;;;;;5002502;28;19985;-75
2023/01/16 01:51:16;;;;;;;;;;;5.00;99.90;;;;;;5008921;28;19937;-76
2023/01/16 01:53:45;;;;;;;;;;;5.00;99.90;;;;;;5004129;28;19983;-77
2023/01/16 01:56:21;;;;;;;;;;;4.90;99.90;;;;;;5006405;28;20406;-77
2023/01/16 01:58:49;;;;;;;;;;;4.90;99.90;;;;;;5009659;28;19918;-75
2023/01/16 02:01:15;;;;;;;;;;;4.90;99.90;;;;;;5012664;28;19920;-75
2023/01/16 02:04:07;;;;;;;;;;;4.90;99.90;;;;;;5010074;28;20004;-77
2023/01/16 02:06:38;;;;;;;;;;;5.00;99.90;;;;;;5004381;28;19924;-77
2023/01/16 02:09:04;;;;;;;;;;;4.90;99.90;;;;;;5007222;28;19913;-73
2023/01/16 02:11:35;;;;;;;;;;;4.90;99.90;;;;;;5009062;28;19915;-76
2023/01/16 02:14:04;;;;;;;;;;;4.90;99.90;;;;;;5003460;28;20375;-76
2023/01/16 02:19:18;;;;;;;;;;;4.80;99.90;;;;;;5008339;28;20058;-78
2023/01/16 02:21:58;;;;;;;;;;;4.90;99.90;;;;;;5015248;28;19921;-78
2023/01/16 02:24:33;;;;;;;;;;;4.90;99.90;;;;;;5002948;28;19957;-76
2023/01/16 02:27:07;;;;;;;;;;;4.90;99.90;;;;;;5006818;28;19917;-77
2023/01/16 02:29:41;;;;;;;;;;;4.90;99.90;;;;;;5008365;28;19909;-76
2023/01/16 02:32:07;;;;;;;;;;;4.90;99.90;;;;;;5010709;28;20066;-77
2023/01/16 02:34:45;;;;;;;;;;;4.90;99.90;;;;;;5008502;28;20339;-76
2023/01/16 02:37:29;;;;;;;;;;;4.90;99.90;;;;;;5005270;28;20363;-77
2023/01/16 02:40:10;;;;;;;;;;;4.90;99.90;;;;;;5004756;28;19914;-77
2023/01/16 02:42:43;;;;;;;;;;;4.80;99.90;;;;;;5008395;28;20402;-75
2023/01/16 02:45:23;;;;;;;;;;;4.80;99.90;;;;;;5013593;28;19913;-78
2023/01/16 02:47:56;;;;;;;;;;;4.80;99.90;;;;;;5012053;28;19948;-76
2023/01/16 02:50:36;;;;;;;;;;;4.70;99.90;;;;;;5010534;28;19910;-75
2023/01/16 02:53:12;;;;;;;;;;;4.70;99.90;;;;;;5000190;28;19917;-77
2023/01/16 02:56:08;;;;;;;;;;;4.70;99.90;;;;;;5014474;28;19918;-75
2023/01/16 02:58:36;;;;;;;;;;;4.70;99.90;;;;;;4996761;28;19987;-76
2023/01/16 03:01:01;;;;;;;;;;;4.70;99.90;;;;;;5020858;28;19914;-76
2023/01/16 03:03:41;;;;;;;;;;;4.80;99.90;;;;;;5012880;28;19999;-75
2023/01/16 03:06:09;;;;;;;;;;;4.80;99.90;;;;;;4999211;28;19922;-75
2023/01/16 03:09:13;;;;;;;;;;;4.70;99.90;;;;;;5004692;28;19956;-76
2023/01/16 03:11:47;;;;;;;;;;;4.70;99.90;;;;;;4964444;28;19918;-76
2023/01/16 03:14:28;;;;;;;;;;;4.70;99.90;;;;;;4967302;28;19914;-77
2023/01/16 03:17:00;;;;;;;;;;;4.70;99.90;;;;;;4990967;28;19916;-76
2023/01/16 03:19:44;;;;;;;;;;;4.70;99.90;;;;;;5019987;28;19943;-76
2023/01/16 03:22:10;;;;;;;;;;;4.70;99.90;;;;;;5010680;28;20017;-76
2023/01/16 03:24:45;;;;;;;;;;;4.70;99.90;;;;;;5003415;28;20300;-77
2023/01/16 03:27:28;;;;;;;;;;;4.70;99.90;;;;;;5006515;28;19909;-75
2023/01/16 03:29:56;;;;;;;;;;;4.70;99.90;;;;;;5002912;28;19963;-75
2023/01/16 03:32:30;;;;;;;;;;;4.70;99.90;;;;;;5020539;28;20457;-74
2023/01/16 03:34:58;;;;;;;;;;;4.70;99.90;;;;;;5012094;28;19917;-75
2023/01/16 03:37:27;;;;;;;;;;;4.70;99.90;;;;;;5006031;28;19952;-77
2023/01/16 03:39:57;;;;;;;;;;;4.80;99.90;;;;;;5004427;28;19920;-75
2023/01/16 03:42:24;;;;;;;;;;;4.70;99.90;;;;;;5005070;28;19917;-75
2023/01/16 03:44:55;;;;;;;;;;;4.70;99.90;;;;;;5007249;28;20033;-77
2023/01/16 03:47:24;;;;;;;;;;;4.70;99.90;;;;;;5000775;28;19913;-77
2023/01/16 03:49:54;;;;;;;;;;;4.70;99.90;;;;;;5003474;28;19917;-76
2023/01/16 03:52:21;;;;;;;;;;;4.70;99.90;;;;;;5007108;28;19913;-75
2023/01/16 03:55:01;;;;;;;;;;;4.70;99.90;;;;;;5007954;28;19917;-76
2023/01/16 03:57:30;;;;;;;;;;;4.70;99.90;;;;;;5017037;28;20398;-74
2023/01/16 03:59:56;;;;;;;;;;;4.70;99.90;;;;;;5008545;28;19927;-74
2023/01/16 04:02:37;;;;;;;;;;;4.70;99.90;;;;;;5005563;28;19918;-77
2023/01/16 04:05:15;;;;;;;;;;;4.70;99.90;;;;;;5019078;28;19967;-74
2023/01/16 04:07:43;;;;;;;;;;;4.70;99.90;;;;;;5004083;28;19918;-75
2023/01/16 04:10:10;;;;;;;;;;;4.70;99.90;;;;;;5010051;28;19960;-74
2023/01/16 04:12:37;;;;;;;;;;;4.70;99.90;;;;;;5005454;28;19925;-75
2023/01/16 04:15:07;;;;;;;;;;;4.70;99.90;;;;;;5004139;28;19924;-75
2023/01/16 04:17:33;;;;;;;;;;;4.70;99.90;;;;;;5020054;28;19909;-78
2023/01/16 04:19:59;;;;;;;;;;;4.70;99.90;;;;;;5007898;28;19913;-75
2023/01/16 04:22:26;;;;;;;;;;;4.70;99.90;;;;;;5005716;28;19916;-75
2023/01/16 04:24:53;;;;;;;;;;;4.70;99.90;;;;;;5000520;28;19960;-76
2023/01/16 04:27:19;;;;;;;;;;;4.70;99.90;;;;;;5011155;28;20371;-75
2023/01/16 04:29:45;;;;;;;;;;;4.70;99.90;;;;;;5013804;28;20135;-75
2023/01/16 04:32:10;;;;;;;;;;;4.80;99.90;;;;;;5014961;28;20218;-75
2023/01/16 04:34:36;;;;;;;;;;;4.80;99.90;;;;;;5005545;28;19921;-75
2023/01/16 04:37:01;;;;;;;;;;;4.80;99.90;;;;;;5008876;28;19952;-76
2023/01/16 04:39:27;;;;;;;;;;;4.80;99.90;;;;;;5015479;28;19910;-76
2023/01/16 04:41:52;;;;;;;;;;;4.80;99.90;;;;;;5006087;28;19910;-75
2023/01/16 04:44:18;;;;;;;;;;;4.80;99.90;;;;;;5017336;28;19920;-75
2023/01/16 04:46:43;;;;;;;;;;;4.80;99.90;;;;;;5017010;28;19917;-76
2023/01/16 04:49:09;;;;;;;;;;;4.70;99.90;;;;;;5013259;28;19920;-74
2023/01/16 04:51:35;;;;;;;;;;;4.80;99.90;;;;;;5012181;28;19953;-73
2023/01/16 04:54:01;;;;;;;;;;;4.80;99.90;;;;;;5022410;28;19972;-78
2023/01/16 04:56:27;;;;;;;;;;;4.80;99.90;;;;;;5036280;28;19952;-77
2023/01/16 04:58:53;;;;;;;;;;;4.80;99.90;;;;;;5022701;28;20430;-77
2023/01/16 05:01:18;;;;;;;;;;;4.80;99.90;;;;;;5021274;28;19970;-75
2023/01/16 05:03:44;;;;;;;;;;;4.90;99.90;;;;;;5009806;28;19976;-77
2023/01/16 05:06:09;;;;;;;;;;;4.90;99.90;;;;;;5015839;28;20008;-77
2023/01/16 05:08:35;;;;;;;;;;;4.80;99.90;;;;;;5004372;28;19952;-76
2023/01/16 05:11:01;;;;;;;;;;;4.90;99.90;;;;;;5006296;28;20410;-75
2023/01/16 05:13:27;;;;;;;;;;;4.80;99.90;;;;;;5009492;28;19913;-76
2023/01/16 05:15:53;;;;;;;;;;;4.90;99.90;;;;;;5018645;28;19920;-75
2023/01/16 05:18:18;;;;;;;;;;;4.90;99.90;;;;;;5006215;28;19952;-75
2023/01/16 05:20:44;;;;;;;;;;;4.90;99.90;;;;;;5019856;28;20129;-74
2023/01/16 05:23:10;;;;;;;;;;;4.90;99.90;;;;;;5011460;28;19913;-74
2023/01/16 05:25:36;;;;;;;;;;;4.90;99.90;;;;;;5010526;28;19921;-73
2023/01/16 05:28:02;;;;;;;;;;;4.90;99.90;;;;;;5010531;28;20433;-73
2023/01/16 05:30:27;;;;;;;;;;;4.90;99.90;;;;;;5009672;28;19976;-73
2023/01/16 05:32:53;;;;;;;;;;;4.90;99.90;;;;;;5013266;28;19967;-73
2023/01/16 05:35:19;;;;;;;;;;;4.90;99.90;;;;;;5029472;28;19913;-73
2023/01/16 05:37:45;;;;;;;;;;;4.90;99.90;;;;;;5022012;28;20008;-74
2023/01/16 05:40:11;;;;;;;;;;;4.90;99.90;;;;;;5007779;28;20015;-74
2023/01/16 05:42:36;;;;;;;;;;;4.90;99.90;;;;;;5008405;28;19922;-72
2023/01/16 05:45:02;;;;;;;;;;;4.90;99.90;;;;;;5021770;28;19952;-73
2023/01/16 05:47:28;;;;;;;;;;;4.90;99.90;;;;;;5013816;28;20442;-72
2023/01/16 05:49:53;;;;;;;;;;;5.00;99.90;;;;;;5009698;28;20349;-73
2023/01/16 05:52:19;;;;;;;;;;;4.90;99.90;;;;;;5022009;28;20437;-73
2023/01/16 05:54:44;;;;;;;;;;;5.00;99.90;;;;;;5022589;28;19917;-74
2023/01/16 05:57:10;;;;;;;;;;;5.00;99.90;;;;;;5009350;28;19921;-75
2023/01/16 05:59:36;;;;;;;;;;;5.00;99.90;;;;;;5010988;28;19932;-75
2023/01/16 06:02:01;;;;;;;;;;;5.10;99.90;;;;;;5009896;28;20426;-73
2023/01/16 06:04:27;;;;;;;;;;;5.10;99.90;;;;;;5010846;28;20165;-74
2023/01/16 06:06:53;;;;;;;;;;;5.10;99.90;;;;;;5007908;28;20349;-75
2023/01/16 06:09:18;;;;;;;;;;;5.20;99.90;;;;;;5006961;28;19913;-73
2023/01/16 06:11:44;;;;;;;;;;;5.20;99.90;;;;;;5011150;28;19916;-73
2023/01/16 06:14:09;;;;;;;;;;;5.20;99.90;;;;;;5008598;28;19910;-75
2023/01/16 06:16:35;;;;;;;;;;;5.20;99.90;;;;;;5009533;28;19964;-77
2023/01/16 06:19:01;;;;;;;;;;;5.30;99.90;;;;;;5014770;28;19964;-74
2023/01/16 06:21:26;;;;;;;;;;;5.30;99.90;;;;;;5011475;28;19921;-76
2023/01/16 06:23:52;;;;;;;;;;;5.40;99.90;;;;;;5013083;28;20472;-74
2023/01/16 06:26:19;;;;;;;;;;;5.40;99.90;;;;;;5016739;28;20420;-79
2023/01/16 06:28:45;;;;;;;;;;;5.50;99.90;;;;;;5023872;28;19914;-76
2023/01/16 06:31:11;;;;;;;;;;;5.60;99.90;;;;;;5012911;28;19944;-77
2023/01/16 06:33:36;;;;;;;;;;;5.60;99.90;;;;;;5011644;28;19959;-76
2023/01/16 06:36:02;;;;;;;;;;;5.70;99.90;;;;;;5012358;28;19926;-76
2023/01/16 06:38:27;;;;;;;;;;;5.70;99.90;;;;;;5007977;28;19921;-76
2023/01/16 06:40:58;;;;;;;;;;;5.70;99.90;;;;;;5003927;28;20012;-76
2023/01/16 06:43:25;;;;;;;;;;;5.70;99.90;;;;;;5008714;28;19925;-75
2023/01/16 06:45:50;;;;;;;;;;;5.90;99.90;;;;;;5009575;28;19914;-75
2023/01/16 06:48:16;;;;;;;;;;;5.90;99.90;;;;;;5001732;28;19917;-75
2023/01/16 06:50:41;;;;;;;;;;;6.00;99.90;;;;;;5019100;28;19910;-77
2023/01/16 06:53:07;;;;;;;;;;;5.90;99.90;;;;;;5020673;28;19967;-79
2023/01/16 06:55:32;;;;;;;;;;;6.10;99.90;;;;;;5029519;28;20142;-75
2023/01/16 06:57:58;;;;;;;;;;;6.10;99.90;;;;;;5007429;28;20318;-76
2023/01/16 07:00:23;;;;;;;;;;;6.00;99.90;;;;;;5012783;28;20000;-75
2023/01/16 07:02:54;;;;;;;;;;;6.20;99.90;;;;;;4999518;28;20206;-75
2023/01/16 07:05:20;;;;;;;;;;;6.10;99.90;;;;;;5003361;28;19924;-77
2023/01/16 07:07:46;;;;;;;;;;;6.20;99.90;;;;;;5003635;28;19913;-76
2023/01/16 07:10:11;;;;;;;;;;;6.20;99.90;;;;;;4998834;28;19913;-75
2023/01/16 07:12:36;;;;;;;;;;;6.30;99.90;;;;;;4995975;28;20001;-74
2023/01/16 07:23:20;;;;;;;;;;;6.30;99.90;;;;;;4992123;28;19917;-78
2023/01/16 07:25:45;;;;;;;;;;;6.40;99.90;;;;;;4994615;28;19921;-74
2023/01/16 07:28:11;;;;;;;;;;;6.30;99.90;;;;;;4994857;28;19913;-77
2023/01/16 07:30:37;;;;;;;;;;;6.40;99.90;;;;;;4996338;28;19975;-75
2023/01/16 07:33:02;;;;;;;;;;;6.40;99.90;;;;;;5002039;28;19924;-74
2023/01/16 07:35:28;;;;;;;;;;;6.40;99.90;;;;;;5006979;28;19935;-75
2023/01/16 07:37:56;;;;;;;;;;;6.40;99.90;;;;;;4997444;28;20194;-77
2023/01/16 07:40:22;;;;;;;;;;;6.40;99.90;;;;;;5009758;28;19980;-77
2023/01/16 07:42:51;;;;;;;;;;;6.40;99.90;;;;;;5001855;28;20147;-77
2023/01/16 07:45:16;;;;;;;;;;;6.40;99.90;;;;;;4999606;28;20375;-75
2023/01/16 07:47:42;;;;;;;;;;;6.40;99.90;;;;;;5004442;28;19916;-76
2023/01/16 07:50:08;;;;;;;;;;;6.40;99.90;;;;;;5009962;28;19971;-75
2023/01/16 07:52:33;;;;;;;;;;;6.50;99.90;;;;;;5006237;28;20351;-76
2023/01/16 07:54:59;;;;;;;;;;;6.40;99.90;;;;;;5012512;28;19967;-75
2023/01/16 07:57:25;;;;;;;;;;;6.40;99.90;;;;;;5012287;28;19921;-76
2023/01/16 07:59:50;;;;;;;;;;;6.40;99.90;;;;;;4997513;28;20023;-78
2023/01/16 08:02:16;;;;;;;;;;;6.40;99.90;;;;;;4995553;28;19913;-74
2023/01/16 08:04:41;;;;;;;;;;;6.30;99.90;;;;;;5001868;28;19914;-77
2023/01/16 08:07:07;;;;;;;;;;;6.40;99.90;;;;;;4997909;28;19917;-75
2023/01/16 08:09:32;;;;;;;;;;;6.40;99.90;;;;;;4994431;28;19988;-76
2023/01/16 08:11:58;;;;;;;;;;;6.40;99.90;;;;;;4997624;28;19916;-74
2023/01/16 08:14:23;;;;;;;;;;;6.40;99.90;;;;;;5006057;28;19918;-78
2023/01/16 08:16:49;;;;;;;;;;;6.30;99.90;;;;;;5005779;28;20085;-74
2023/01/16 08:19:14;;;;;;;;;;;6.40;99.90;;;;;;5011592;28;19910;-78
2023/01/16 08:21:40;;;;;;;;;;;6.40;99.90;;;;;;5023790;28;19918;-78
2023/01/16 08:24:06;;;;;;;;;;;6.40;99.90;;;;;;5030910;28;20392;-78
2023/01/16 08:26:31;;;;;;;;;;;6.30;99.90;;;;;;5020915;28;19920;-74
2023/01/16 08:28:57;;;;;;;;;;;6.40;99.90;;;;;;5005335;28;19921;-77
2023/01/16 08:31:23;;;;;;;;;;;6.40;99.90;;;;;;5003901;28;19973;-76
2023/01/16 08:33:49;;;;;;;;;;;6.30;99.90;;;;;;5009426;28;19948;-78
2023/01/16 08:36:16;;;;;;;;;;;6.40;99.90;;;;;;5013927;28;20365;-75
2023/01/16 08:38:42;;;;;;;;;;;6.40;99.90;;;;;;5026103;28;19980;-77
2023/01/16 08:52:06;;;;;;;;;;;6.40;99.90;;;;;;5009097;28;19985;-72
2023/01/16 08:54:31;;;;;;;;;;;6.40;99.90;;;;;;5016136;28;19964;-71
2023/01/16 08:56:57;;;;;;;;;;;6.50;99.90;;;;;;5020680;28;20058;-72
2023/01/16 08:59:23;;;;;;;;;;;6.50;99.90;;;;;;5004630;28;19949;-72
2023/01/16 09:01:48;;;;;;;;;;;6.50;99.90;;;;;;5031754;28;20409;-72
2023/01/16 09:04:14;;;;;;;;;;;6.50;99.90;;;;;;5029133;28;20000;-73
2023/01/16 09:06:39;;;;;;;;;;;6.50;99.90;;;;;;5036723;28;19980;-71
2023/01/16 09:09:06;;;;;;;;;;;6.50;99.90;;;;;;5018560;28;19936;-72
2023/01/16 09:14:16;;;;;;;;;;;6.50;99.90;;;;;;5008678;28;19971;-72
2023/01/16 09:16:42;;;;;;;;;;;6.50;99.90;;;;;;5014009;28;20008;-71
2023/01/16 09:19:07;;;;;;;;;;;6.50;99.90;;;;;;5012690;28;19957;-73
2023/01/16 09:21:33;;;;;;;;;;;6.60;99.90;;;;;;5012384;28;20088;-73
2023/01/16 09:23:58;;;;;;;;;;;6.50;99.90;;;;;;5003375;28;19909;-71
2023/01/16 09:26:24;;;;;;;;;;;6.50;99.90;;;;;;5007843;28;19909;-71
2023/01/16 09:28:49;;;;;;;;;;;6.50;99.90;;;;;;5015396;28;19910;-72
2023/01/16 09:31:15;;;;;;;;;;;6.60;99.90;;;;;;5008771;28;20283;-72
2023/01/16 09:33:41;;;;;;;;;;;6.60;99.90;;;;;;5011487;28;19910;-71
2023/01/16 09:36:07;;;;;;;;;;;6.50;99.90;;;;;;5003796;28;19924;-72
2023/01/16 09:38:32;;;;;;;;;;;6.60;99.90;;;;;;5017884;28;19992;-73
2023/01/16 09:40:58;;;;;;;;;;;6.60;99.90;;;;;;5014528;28;20147;-72
2023/01/16 09:43:35;;;;;;;;;;;6.70;99.90;;;;;;5034476;28;20167;-72
2023/01/16 09:46:03;;;;;;;;;;;6.60;99.90;;;;;;5031849;28;19914;-72
2023/01/16 09:48:33;;;;;;;;;;;6.60;99.90;;;;;;5025938;28;19958;-72
2023/01/16 09:51:03;;;;;;;;;;;6.60;99.90;;;;;;5009026;28;19920;-71
2023/01/16 09:59:21;;;;;;;;;;;6.70;99.90;;;;;;5011735;28;19983;-72
2023/01/16 10:01:52;;;;;;;;;;;6.70;99.90;;;;;;5014360;28;19922;-73
2023/01/16 10:04:19;;;;;;;;;;;6.70;99.90;;;;;;5006000;28;20016;-75
2023/01/16 10:06:52;;;;;;;;;;;6.70;99.90;;;;;;4993721;28;19917;-74
2023/01/16 10:09:18;;;;;;;;;;;6.70;99.90;;;;;;4993578;28;19914;-73
2023/01/16 10:11:47;;;;;;;;;;;6.70;99.90;;;;;;4993619;28;19910;-74
2023/01/16 10:14:28;;;;;;;;;;;6.70;99.90;;;;;;4991063;28;20406;-76
2023/01/16 10:17:12;;;;;;;;;;;6.70;99.90;;;;;;5007686;28;19914;-73
2023/01/16 10:19:41;;;;;;;;;;;6.70;99.90;;;;;;4998594;28;19914;-73
2023/01/16 10:22:25;;;;;;;;;;;6.70;99.90;;;;;;5014894;28;19975;-74
2023/01/16 10:25:01;;;;;;;;;;;6.70;99.90;;;;;;5005306;28;20473;-74
2023/01/16 10:27:36;;;;;;;;;;;6.70;99.90;;;;;;5009649;28;19924;-72
2023/01/16 10:30:10;;;;;;;;;;;6.80;99.90;;;;;;5002728;28;19910;-74
2023/01/16 10:32:42;;;;;;;;;;;6.70;99.90;;;;;;5015727;28;20367;-73
2023/01/16 10:35:10;;;;;;;;;;;6.70;99.90;;;;;;5012791;28;19988;-74
2023/01/16 10:37:38;;;;;;;;;;;6.80;99.90;;;;;;5012201;28;20442;-73
2023/01/16 10:40:24;;;;;;;;;;;6.80;99.90;;;;;;5018055;28;19913;-73
2023/01/16 10:51:27;;;;;;;;;;;7.30;99.90;;;;;;5006084;28;19944;-73
2023/01/16 10:53:52;;;;;;;;;;;7.40;99.90;;;;;;5003060;28;19921;-75
2023/01/16 10:56:18;;;;;;;;;;;7.50;99.90;;;;;;5001526;28;19917;-73
2023/01/16 10:58:44;;;;;;;;;;;7.20;99.90;;;;;;5003558;28;19967;-73
2023/01/16 11:01:17;;;;;;;;;;;7.10;99.90;;;;;;5012851;28;19916;-72
2023/01/16 11:03:47;;;;;;;;;;;7.10;99.90;;;;;;5010646;28;19909;-75
2023/01/16 11:06:13;;;;;;;;;;;7.20;99.90;;;;;;5011542;28;19917;-74
2023/01/16 11:08:40;;;;;;;;;;;7.00;99.90;;;;;;5005023;28;19920;-75
2023/01/16 11:18:27;;;;;;;;;;;6.80;99.90;;;;;;5012621;28;19917;-74
2023/01/16 11:19:26;;;;;;;;;;;6.60;99.90;;;;;;5008424;28;20382;-72
2023/01/16 11:21:53;;;;;;;;;;;6.60;99.90;;;;;;5001548;28;19956;-74
2023/01/16 11:24:24;;;;;;;;;;;6.60;99.90;;;;;;5000965;28;20039;-75
2023/01/16 11:26:54;;;;;;;;;;;6.50;99.90;;;;;;5001342;28;20419;-75
2023/01/16 11:29:25;;;;;;;;;;;6.40;99.90;;;;;;5004351;28;20357;-74
2023/01/16 11:31:54;;;;;;;;;;;6.30;99.90;;;;;;5012053;28;20746;-74
2023/01/16 11:34:21;;;;;;;;;;;6.30;99.90;;;;;;5002822;28;20434;-75
2023/01/16 11:36:47;;;;;;;;;;;6.30;99.90;;;;;;5004079;28;20036;-74
2023/01/16 11:39:23;;;;;;;;;;;6.30;99.90;;;;;;5003039;28;19997;-74
2023/01/16 11:41:50;;;;;;;;;;;6.30;99.90;;;;;;5009613;28;19921;-75
2023/01/16 11:47:26;;;;;;;;;;;6.30;99.90;;;;;;5024999;28;19916;-74
2023/01/16 11:49:52;;;;;;;;;;;6.30;99.90;;;;;;5011044;28;19909;-75
2023/01/16 11:52:28;;;;;;;;;;;6.30;99.90;;;;;;5015858;28;19914;-74
2023/01/16 11:54:55;;;;;;;;;;;6.40;99.90;;;;;;5027540;28;20351;-75
2023/01/16 11:57:26;;;;;;;;;;;6.40;99.90;;;;;;5014386;28;20395;-75
2023/01/16 11:59:53;;;;;;;;;;;6.40;99.90;;;;;;5003468;28;19971;-75
2023/01/16 12:02:19;;;;;;;;;;;6.30;99.90;;;;;;5019495;28;19917;-75
2023/01/16 12:08:01;;;;;;;;;;;6.50;99.90;;;;;;5007909;28;20008;-75
2023/01/16 12:10:29;;;;;;;;;;;6.40;99.90;;;;;;5006162;28;20097;-75
2023/01/16 12:16:10;;;;;;;;;;;6.20;99.90;;;;;;5003094;28;19943;-75
2023/01/16 12:18:47;;;;;;;;;;;6.30;99.90;;;;;;5015895;28;19909;-76
2023/01/16 12:21:15;;;;;;;;;;;6.30;99.90;;;;;;5008222;28;19913;-75
2023/01/16 12:23:43;;;;;;;;;;;6.30;99.90;;;;;;5014964;28;19972;-75
2023/01/16 12:26:17;;;;;;;;;;;6.30;99.90;;;;;;5007050;28;19914;-75
2023/01/16 12:28:48;;;;;;;;;;;6.50;99.90;;;;;;5001290;28;20287;-76
2023/01/16 12:31:35;;;;;;;;;;;6.60;99.90;;;;;;4998426;28;20000;-76
2023/01/16 12:34:04;;;;;;;;;;;6.80;99.90;;;;;;5004047;28;19917;-75
2023/01/16 12:36:48;;;;;;;;;;;6.80;99.90;;;;;;4992004;28;19921;-74
2023/01/16 12:39:22;;;;;;;;;;;6.70;99.90;;;;;;5001479;28;19909;-75
2023/01/16 12:44:41;;;;;;;;;;;6.70;99.90;;;;;;5008024;28;19924;-75
2023/01/16 12:47:14;;;;;;;;;;;6.60;99.90;;;;;;4996362;28;19913;-74
2023/01/16 12:49:59;;;;;;;;;;;6.70;99.90;;;;;;4995980;28;19981;-75
2023/01/16 12:52:24;;;;;;;;;;;6.80;99.90;;;;;;5001707;28;19952;-74
2023/01/16 12:55:08;;;;;;;;;;;6.70;99.90;;;;;;5003405;28;19949;-75
2023/01/16 12:58:00;;;;;;;;;;;6.80;99.90;;;;;;5012498;28;19917;-76
2023/01/16 13:00:31;;;;;;;;;;;6.90;99.90;;;;;;4988639;28;19910;-75
2023/01/16 13:02:58;;;;;;;;;;;7.10;99.90;;;;;;5013589;28;19910;-75
2023/01/16 13:05:26;;;;;;;;;;;6.90;99.90;;;;;;5001083;28;19922;-75
2023/01/16 13:07:52;;;;;;;;;;;7.00;99.90;;;;;;5006812;28;19909;-75
2023/01/16 13:13:24;;;;;;;;;;;7.10;99.90;;;;;;5005537;28;20179;-76
2023/01/16 13:15:56;;;;;;;;;;;7.10;99.90;;;;;;5017424;28;20201;-75
2023/01/16 13:18:31;;;;;;;;;;;7.10;99.90;;;;;;5008153;28;20381;-76
2023/01/16 13:20:59;;;;;;;;;;;7.10;99.90;;;;;;5008587;28;19909;-75
2023/01/16 13:23:29;;;;;;;;;;;7.00;99.90;;;;;;5003390;28;19964;-75
2023/01/16 13:26:02;;;;;;;;;;;7.10;99.90;;;;;;5004666;28;19913;-75
2023/01/16 13:28:45;;;;;;;;;;;7.20;99.90;;;;;;4999691;28;20418;-73
2023/01/16 13:31:23;;;;;;;;;;;7.10;99.90;;;;;;5006605;28;20429;-74
2023/01/16 13:33:51;;;;;;;;;;;7.00;99.90;;;;;;5009009;28;20371;-74
2023/01/16 13:36:47;;;;;;;;;;;7.10;99.90;;;;;;5014777;28;19961;-75
2023/01/16 13:39:32;;;;;;;;;;;7.00;99.90;;;;;;5029108;28;19929;-75
2023/01/16 13:41:58;;;;;;;;;;;6.90;99.90;;;;;;5018673;28;19922;-75
2023/01/16 13:47:20;;;;;;;;;;;7.20;99.90;;;;;;5022981;28;19912;-75
2023/01/16 13:49:53;;;;;;;;;;;7.30;99.90;;;;;;5030572;28;19940;-75
2023/01/16 13:52:24;;;;;;;;;;;7.20;99.90;;;;;;4998859;28;19928;-75
2023/01/16 13:54:52;;;;;;;;;;;7.20;99.90;;;;;;5010490;28;19909;-75
2023/01/16 13:57:20;;;;;;;;;;;7.10;99.90;;;;;;5010579;28;20282;-74
2023/01/16 14:00:08;;;;;;;;;;;7.10;99.90;;;;;;5006045;28;19936;-75
2023/01/16 14:02:37;;;;;;;;;;;7.00;99.90;;;;;;5016261;28;19909;-75
2023/01/16 14:05:06;;;;;;;;;;;7.10;99.90;;;;;;5000465;28;19949;-75
2023/01/16 14:10:40;;;;;;;;;;;6.90;99.90;;;;;;4998186;28;19964;-74
2023/01/16 14:13:21;;;;;;;;;;;7.10;99.90;;;;;;5007488;28;19917;-74
2023/01/16 14:18:56;;;;;;;;;;;7.10;99.90;;;;;;5005076;28;19920;-74
2023/01/16 14:21:21;;;;;;;;;;;7.10;99.90;;;;;;5011023;28;19940;-74
2023/01/16 14:24:01;;;;;;;;;;;7.10;99.90;;;;;;5008150;28;20341;-76
2023/01/16 14:26:59;;;;;;;;;;;7.10;99.90;;;;;;5004336;28;19915;-75
2023/01/16 14:29:35;;;;;;;;;;;7.00;99.90;;;;;;4991881;28;19920;-76
2023/01/16 14:32:05;;;;;;;;;;;6.90;99.90;;;;;;5015944;28;20418;-74
2023/01/16 14:34:36;;;;;;;;;;;6.80;99.90;;;;;;5015932;28;20029;-74
2023/01/16 14:37:10;;;;;;;;;;;6.80;99.90;;;;;;4997821;28;19913;-75
2023/01/16 14:39:47;;;;;;;;;;;6.90;99.90;;;;;;5005361;28;19909;-75
2023/01/16 14:56:27;;;;;;;;;;;7.00;99.90;;;;;;5005671;28;19920;-74
2023/01/16 14:58:55;;;;;;;;;;;7.00;99.90;;;;;;5014094;28;19913;-75
2023/01/16 15:04:29;;;;;;;;;;;7.10;99.90;;;;;;4999379;28;19940;-75
2023/01/16 15:07:00;;;;;;;;;;;7.10;99.90;;;;;;5010744;28;20009;-75
2023/01/16 15:09:27;;;;;;;;;;;7.10;99.90;;;;;;5011019;28;19971;-76
2023/01/16 15:11:55;;;;;;;;;;;7.10;99.90;;;;;;5020954;28;19948;-74
2023/01/16 15:14:33;;;;;;;;;;;7.10;99.90;;;;;;5020667;28;19948;-75
2023/01/16 15:22:47;;;;;;;;;;;7.10;99.90;;;;;;5008032;28;19971;-75
2023/01/16 15:25:20;;;;;;;;;;;7.10;99.90;;;;;;5004647;28;19952;-76
2023/01/16 15:27:49;;;;;;;;;;;7.10;99.90;;;;;;5004789;28;20004;-75
2023/01/16 15:30:17;;;;;;;;;;;7.10;99.90;;;;;;5001844;28;19909;-76
2023/01/16 15:32:52;;;;;;;;;;;7.00;99.90;;;;;;5006843;28;19909;-75
2023/01/16 15:35:20;;;;;;;;;;;7.10;99.90;;;;;;5005437;28;19966;-76
2023/01/16 15:37:51;;;;;;;;;;;7.00;99.90;;;;;;5012301;28;20363;-75
2023/01/16 15:40:35;;;;;;;;;;;7.00;99.90;;;;;;5003652;28;19909;-76
2023/01/16 15:49:28;;;;;;;;;;;6.90;99.90;;;;;;4962834;28;20391;-76
2023/01/16 15:51:55;;;;;;;;;;;6.80;99.90;;;;;;5011980;28;19910;-77
2023/01/16 15:54:21;;;;;;;;;;;6.60;99.90;;;;;;5006893;28;19921;-76
2023/01/16 15:56:49;;;;;;;;;;;6.60;99.90;;;;;;5010767;28;20205;-76
2023/01/16 15:59:21;;;;;;;;;;;6.70;99.90;;;;;;5002787;28;20189;-75
2023/01/16 16:01:46;;;;;;;;;;;6.70;99.90;;;;;;5011726;28;19925;-75
2023/01/16 16:04:12;;;;;;;;;;;6.40;99.90;;;;;;5010735;28;19910;-77
2023/01/16 16:06:38;;;;;;;;;;;6.20;99.90;;;;;;4999034;28;19975;-77
2023/01/16 16:09:04;;;;;;;;;;;6.00;99.90;;;;;;5002205;28;19932;-75
2023/01/16 16:19:44;;;;;;;;;;;5.70;99.90;;;;;;5008091;28;19917;-79
2023/01/16 16:24:54;;;;;;;;;;;5.90;99.90;;;;;;5001681;28;19933;-77
2023/01/16 16:27:21;;;;;;;;;;;5.80;99.90;;;;;;5007169;28;20407;-75
2023/01/16 16:29:48;;;;;;;;;;;5.90;99.90;;;;;;5001040;28;20012;-80
2023/01/16 16:32:14;;;;;;;;;;;5.90;99.90;;;;;;5011803;28;20285;-77